Terminal Aerodrome Forecast
Issued by NWS Sioux Falls, SD

Home | Current Version | Previous Version | Graphics & Text | Print | Product List | Glossary On
Versions: 1 2 3 4 5 6 7 8 9 10 11 12 13 14 15
000
FTUS43 KFSD 300522
TAFHON
TAF
KHON 300522Z 3006/3106 VRB04KT P6SM FEW015
     FM301000 15007KT P6SM SCT200
     FM301600 17013G18KT P6SM SKC
     FM302100 18008KT P6SM SKC
     FM310000 VRB04KT P6SM SCT250
     FM310400 35009KT P6SM SCT250=

USA.gov is the U.S. government's official web portal to all federal, state and local government web resources and services.